sensor_id;sensor_type;location;lat;lon;timestamp;pressure;altitude;pressure_sealevel;temperature;humidity
49627;BME280;35527;54.616;39.786;2023-06-14T00:02:51;100173.16;;;14.43;82.69
49627;BME280;35527;54.616;39.786;2023-06-14T00:05:59;100178.72;;;14.35;83.05
49627;BME280;35527;54.616;39.786;2023-06-14T00:09:05;100162.56;;;14.29;82.69
49627;BME280;35527;54.616;39.786;2023-06-14T00:12:11;100173.06;;;14.45;81.01
49627;BME280;35527;54.616;39.786;2023-06-14T00:15:14;100165.66;;;14.37;79.66
49627;BME280;35527;54.616;39.786;2023-06-14T00:18:19;100143.66;;;14.25;78.54
49627;BME280;35527;54.616;39.786;2023-06-14T00:21:22;100159.28;;;14.42;78.23
49627;BME280;35527;54.616;39.786;2023-06-14T00:24:27;100180.16;;;14.60;78.18
49627;BME280;35527;54.616;39.786;2023-06-14T00:27:30;100170.94;;;14.53;77.61
49627;BME280;35527;54.616;39.786;2023-06-14T00:30:33;100171.88;;;14.52;79.55
49627;BME280;35527;54.616;39.786;2023-06-14T00:33:37;100141.88;;;14.26;79.25
49627;BME280;35527;54.616;39.786;2023-06-14T00:36:40;100172.22;;;14.44;80.20
49627;BME280;35527;54.616;39.786;2023-06-14T00:39:45;100176.13;;;14.35;80.81
49627;BME280;35527;54.616;39.786;2023-06-14T00:42:49;100178.97;;;14.31;82.23
49627;BME280;35527;54.616;39.786;2023-06-14T00:45:54;100161.41;;;14.17;81.76
49627;BME280;35527;54.616;39.786;2023-06-14T00:48:58;100175.78;;;14.24;82.95
49627;BME280;35527;54.616;39.786;2023-06-14T00:52:06;100156.19;;;14.17;82.69
49627;BME280;35527;54.616;39.786;2023-06-14T00:55:10;100183.31;;;14.30;82.49
49627;BME280;35527;54.616;39.786;2023-06-14T00:58:12;100177.94;;;14.33;82.53
49627;BME280;35527;54.616;39.786;2023-06-14T01:01:17;100182.16;;;14.36;82.83
49627;BME280;35527;54.616;39.786;2023-06-14T01:04:21;100181.47;;;14.32;83.57
49627;BME280;35527;54.616;39.786;2023-06-14T01:10:52;100177.88;;;14.35;84.96
49627;BME280;35527;54.616;39.786;2023-06-14T01:13:58;100185.59;;;14.36;84.50
49627;BME280;35527;54.616;39.786;2023-06-14T01:17:03;100179.56;;;14.36;84.54
49627;BME280;35527;54.616;39.786;2023-06-14T01:20:08;100176.91;;;14.37;85.51
49627;BME280;35527;54.616;39.786;2023-06-14T01:23:14;100181.41;;;14.34;85.07
49627;BME280;35527;54.616;39.786;2023-06-14T01:26:17;100178.97;;;14.31;85.82
49627;BME280;35527;54.616;39.786;2023-06-14T01:29:23;100177.25;;;14.30;85.54
49627;BME280;35527;54.616;39.786;2023-06-14T01:32:27;100179.03;;;14.29;86.18
49627;BME280;35527;54.616;39.786;2023-06-14T01:35:31;100174.66;;;14.30;86.12
49627;BME280;35527;54.616;39.786;2023-06-14T01:38:36;100167.94;;;14.26;86.42
49627;BME280;35527;54.616;39.786;2023-06-14T01:41:41;100176.47;;;14.28;86.19
49627;BME280;35527;54.616;39.786;2023-06-14T01:44:46;100177.34;;;14.28;86.51
49627;BME280;35527;54.616;39.786;2023-06-14T01:47:52;100175.66;;;14.27;86.98
49627;BME280;35527;54.616;39.786;2023-06-14T01:50:55;100179.81;;;14.31;86.55
49627;BME280;35527;54.616;39.786;2023-06-14T01:53:59;100175.44;;;14.32;86.27
49627;BME280;35527;54.616;39.786;2023-06-14T01:57:02;100177.94;;;14.33;86.38
49627;BME280;35527;54.616;39.786;2023-06-14T02:00:06;100176.44;;;14.29;86.77
49627;BME280;35527;54.616;39.786;2023-06-14T02:03:15;100177.19;;;14.31;86.38
49627;BME280;35527;54.616;39.786;2023-06-14T02:06:18;100178.88;;;14.32;86.89
49627;BME280;35527;54.616;39.786;2023-06-14T02:09:20;100180.56;;;14.33;87.31
49627;BME280;35527;54.616;39.786;2023-06-14T02:12:24;100175.50;;;14.30;87.01
49627;BME280;35527;54.616;39.786;2023-06-14T02:15:30;100177.94;;;14.33;87.20
49627;BME280;35527;54.616;39.786;2023-06-14T02:18:37;100175.28;;;14.35;87.76
49627;BME280;35527;54.616;39.786;2023-06-14T02:21:40;100170.06;;;14.35;87.87
49627;BME280;35527;54.616;39.786;2023-06-14T02:24:47;100181.31;;;14.35;88.07
49627;BME280;35527;54.616;39.786;2023-06-14T02:27:51;100177.19;;;14.31;88.63
49627;BME280;35527;54.616;39.786;2023-06-14T02:30:57;100173.81;;;14.29;89.34
49627;BME280;35527;54.616;39.786;2023-06-14T02:33:59;100173.88;;;14.28;89.72
49627;BME280;35527;54.616;39.786;2023-06-14T02:37:04;100178.81;;;14.34;90.50
49627;BME280;35527;54.616;39.786;2023-06-14T02:40:10;100177.59;;;14.41;89.94
49627;BME280;35527;54.616;39.786;2023-06-14T02:43:17;100173.16;;;14.43;90.12
49627;BME280;35527;54.616;39.786;2023-06-14T02:46:21;100174.59;;;14.49;89.95
49627;BME280;35527;54.616;39.786;2023-06-14T02:49:28;100179.38;;;14.58;90.19
49627;BME280;35527;54.616;39.786;2023-06-14T02:52:32;100179.06;;;14.64;89.65
49627;BME280;35527;54.616;39.786;2023-06-14T02:55:38;100173.19;;;14.60;90.24
49627;BME280;35527;54.616;39.786;2023-06-14T02:58:43;100176.31;;;14.67;89.71
49627;BME280;35527;54.616;39.786;2023-06-14T03:01:47;100178.19;;;14.65;89.41
49627;BME280;35527;54.616;39.786;2023-06-14T03:04:51;100170.72;;;14.75;87.93
49627;BME280;35527;54.616;39.786;2023-06-14T03:07:56;100174.69;;;14.82;87.03
49627;BME280;35527;54.616;39.786;2023-06-14T03:10:59;100169.47;;;14.99;85.08
49627;BME280;35527;54.616;39.786;2023-06-14T03:14:05;100174.19;;;15.26;82.82
49627;BME280;35527;54.616;39.786;2023-06-14T03:17:16;100175.81;;;15.44;81.02
49627;BME280;35527;54.616;39.786;2023-06-14T03:20:22;100174.97;;;15.44;79.33
49627;BME280;35527;54.616;39.786;2023-06-14T03:23:28;100178.34;;;15.46;81.03
49627;BME280;35527;54.616;39.786;2023-06-14T03:26:32;100169.91;;;15.57;80.27
49627;BME280;35527;54.616;39.786;2023-06-14T03:29:37;100170.91;;;15.71;80.67
49627;BME280;35527;54.616;39.786;2023-06-14T03:32:39;100168.09;;;15.90;78.78
49627;BME280;35527;54.616;39.786;2023-06-14T03:35:43;100167.09;;;16.09;77.41
49627;BME280;35527;54.616;39.786;2023-06-14T03:38:46;100165.38;;;16.24;76.76
49627;BME280;35527;54.616;39.786;2023-06-14T03:41:52;100161.41;;;16.32;75.98
49627;BME280;35527;54.616;39.786;2023-06-14T03:45:00;100161.44;;;16.47;74.64
49627;BME280;35527;54.616;39.786;2023-06-14T03:48:05;100167.66;;;16.60;73.39
49627;BME280;35527;54.616;39.786;2023-06-14T03:51:11;100168.38;;;16.62;72.04
49627;BME280;35527;54.616;39.786;2023-06-14T03:54:16;100166.69;;;16.77;71.99
49627;BME280;35527;54.616;39.786;2023-06-14T03:57:39;100175.94;;;16.97;70.21
49627;BME280;35527;54.616;39.786;2023-06-14T04:00:45;100178.13;;;17.19;68.88
49627;BME280;35527;54.616;39.786;2023-06-14T04:03:50;100182.44;;;17.48;67.77
49627;BME280;35527;54.616;39.786;2023-06-14T04:06:55;100177.00;;;17.80;65.79
49627;BME280;35527;54.616;39.786;2023-06-14T04:09:59;100168.78;;;17.99;63.90
49627;BME280;35527;54.616;39.786;2023-06-14T04:13:01;100172.03;;;18.02;63.36
49627;BME280;35527;54.616;39.786;2023-06-14T04:16:05;100167.09;;;18.25;62.27
49627;BME280;35527;54.616;39.786;2023-06-14T04:19:10;100171.53;;;17.97;61.54
49627;BME280;35527;54.616;39.786;2023-06-14T04:22:13;100155.94;;;18.09;61.34
49627;BME280;35527;54.616;39.786;2023-06-14T04:25:16;100161.31;;;18.73;59.51
49627;BME280;35527;54.616;39.786;2023-06-14T04:28:26;100155.94;;;20.00;56.24
49627;BME280;35527;54.616;39.786;2023-06-14T04:31:33;100168.41;;;21.38;50.97
49627;BME280;35527;54.616;39.786;2023-06-14T04:34:37;100167.63;;;21.13;49.63
49627;BME280;35527;54.616;39.786;2023-06-14T04:37:42;100162.16;;;20.59;50.51
49627;BME280;35527;54.616;39.786;2023-06-14T04:40:47;100154.25;;;20.23;50.91
49627;BME280;35527;54.616;39.786;2023-06-14T04:43:54;100156.59;;;19.91;50.85
49627;BME280;35527;54.616;39.786;2023-06-14T04:46:58;100146.50;;;19.98;50.81
49627;BME280;35527;54.616;39.786;2023-06-14T04:50:01;100155.78;;;20.15;50.27
49627;BME280;35527;54.616;39.786;2023-06-14T04:53:07;100147.25;;;20.35;49.33
49627;BME280;35527;54.616;39.786;2023-06-14T04:56:12;100149.25;;;20.56;48.85
49627;BME280;35527;54.616;39.786;2023-06-14T04:59:16;100142.31;;;20.66;48.58
49627;BME280;35527;54.616;39.786;2023-06-14T05:02:24;100149.19;;;21.36;46.95
49627;BME280;35527;54.616;39.786;2023-06-14T05:05:33;100146.16;;;22.29;45.22
49627;BME280;35527;54.616;39.786;2023-06-14T05:08:37;100153.06;;;23.54;42.11
49627;BME280;35527;54.616;39.786;2023-06-14T05:11:39;100163.16;;;24.97;39.46
49627;BME280;35527;54.616;39.786;2023-06-14T05:14:45;100150.59;;;27.23;33.85
49627;BME280;35527;54.616;39.786;2023-06-14T05:17:51;100151.22;;;28.67;31.28
49627;BME280;35527;54.616;39.786;2023-06-14T05:21:00;100161.69;;;28.28;31.32
49627;BME280;35527;54.616;39.786;2023-06-14T05:24:03;100150.38;;;28.18;31.45
49627;BME280;35527;54.616;39.786;2023-06-14T05:27:07;100148.56;;;29.31;29.97
49627;BME280;35527;54.616;39.786;2023-06-14T05:30:10;100149.84;;;30.21;28.50
49627;BME280;35527;54.616;39.786;2023-06-14T05:33:13;100145.53;;;30.20;28.52
49627;BME280;35527;54.616;39.786;2023-06-14T05:36:17;100146.31;;;28.95;29.24
49627;BME280;35527;54.616;39.786;2023-06-14T05:39:22;100148.34;;;28.77;29.51
49627;BME280;35527;54.616;39.786;2023-06-14T05:42:27;100141.09;;;29.89;27.58
49627;BME280;35527;54.616;39.786;2023-06-14T05:45:29;100153.34;;;30.44;26.65
49627;BME280;35527;54.616;39.786;2023-06-14T05:48:33;100159.75;;;29.66;27.53
49627;BME280;35527;54.616;39.786;2023-06-14T05:51:36;100149.81;;;29.83;27.92
49627;BME280;35527;54.616;39.786;2023-06-14T05:54:42;100127.38;;;31.06;25.36
49627;BME280;35527;54.616;39.786;2023-06-14T05:57:45;100138.88;;;31.36;25.13
49627;BME280;35527;54.616;39.786;2023-06-14T06:00:50;100129.13;;;30.98;25.28
49627;BME280;35527;54.616;39.786;2023-06-14T06:03:54;100140.69;;;31.50;24.85
49627;BME280;35527;54.616;39.786;2023-06-14T06:06:58;100135.47;;;31.42;24.86
49627;BME280;35527;54.616;39.786;2023-06-14T06:10:00;100148.78;;;32.36;24.13
49627;BME280;35527;54.616;39.786;2023-06-14T06:13:06;100149.63;;;32.65;23.29
49627;BME280;35527;54.616;39.786;2023-06-14T06:16:09;100153.50;;;32.84;23.08
49627;BME280;35527;54.616;39.786;2023-06-14T06:19:13;100134.72;;;33.18;22.98
49627;BME280;35527;54.616;39.786;2023-06-14T06:22:15;100139.41;;;32.47;23.13
49627;BME280;35527;54.616;39.786;2023-06-14T06:25:20;100151.78;;;32.48;23.13
49627;BME280;35527;54.616;39.786;2023-06-14T06:28:26;100140.03;;;31.33;24.25
49627;BME280;35527;54.616;39.786;2023-06-14T06:31:28;100136.66;;;31.25;24.79
49627;BME280;35527;54.616;39.786;2023-06-14T06:34:31;100133.84;;;30.59;25.03
49627;BME280;35527;54.616;39.786;2023-06-14T06:37:34;100116.81;;;30.60;25.32
49627;BME280;35527;54.616;39.786;2023-06-14T06:40:40;100127.41;;;31.78;23.93
49627;BME280;35527;54.616;39.786;2023-06-14T06:43:43;100125.78;;;31.99;23.67
49627;BME280;35527;54.616;39.786;2023-06-14T06:46:45;100112.97;;;32.16;23.66
49627;BME280;35527;54.616;39.786;2023-06-14T06:49:48;100127.50;;;32.28;23.50
49627;BME280;35527;54.616;39.786;2023-06-14T06:52:51;100127.19;;;32.66;22.97
49627;BME280;35527;54.616;39.786;2023-06-14T06:55:55;100132.31;;;32.61;22.59
49627;BME280;35527;54.616;39.786;2023-06-14T06:59:02;100121.50;;;32.82;22.53
49627;BME280;35527;54.616;39.786;2023-06-14T07:02:07;100127.31;;;32.86;22.00
49627;BME280;35527;54.616;39.786;2023-06-14T07:05:12;100128.22;;;32.15;22.77
49627;BME280;35527;54.616;39.786;2023-06-14T07:08:17;100128.81;;;32.39;22.81
49627;BME280;35527;54.616;39.786;2023-06-14T07:11:22;100120.81;;;32.73;22.33
49627;BME280;35527;54.616;39.786;2023-06-14T07:14:26;100122.75;;;32.30;23.05
49627;BME280;35527;54.616;39.786;2023-06-14T07:17:30;100116.06;;;32.19;22.46
49627;BME280;35527;54.616;39.786;2023-06-14T07:20:34;100125.13;;;31.75;23.37
49627;BME280;35527;54.616;39.786;2023-06-14T07:23:40;100113.34;;;32.62;22.78
49627;BME280;35527;54.616;39.786;2023-06-14T07:26:43;100126.44;;;33.68;21.73
49627;BME280;35527;54.616;39.786;2023-06-14T07:29:47;100122.56;;;33.77;21.65
49627;BME280;35527;54.616;39.786;2023-06-14T07:32:54;100116.00;;;34.40;20.76
49627;BME280;35527;54.616;39.786;2023-06-14T07:35:58;100116.31;;;34.90;20.54
49627;BME280;35527;54.616;39.786;2023-06-14T07:39:02;100121.72;;;34.76;20.01
49627;BME280;35527;54.616;39.786;2023-06-14T07:42:09;100119.09;;;34.43;20.61
49627;BME280;35527;54.616;39.786;2023-06-14T07:45:16;100121.78;;;34.57;20.91
49627;BME280;35527;54.616;39.786;2023-06-14T07:48:19;100120.72;;;34.64;20.20
49627;BME280;35527;54.616;39.786;2023-06-14T07:51:22;100119.22;;;34.95;19.98
49627;BME280;35527;54.616;39.786;2023-06-14T07:54:29;100119.66;;;33.79;21.62
49627;BME280;35527;54.616;39.786;2023-06-14T07:57:33;100109.56;;;34.27;20.64
49627;BME280;35527;54.616;39.786;2023-06-14T08:00:35;100124.25;;;34.25;21.05
49627;BME280;35527;54.616;39.786;2023-06-14T08:03:41;100118.47;;;33.33;22.20
49627;BME280;35527;54.616;39.786;2023-06-14T08:06:45;100093.47;;;33.26;21.84
49627;BME280;35527;54.616;39.786;2023-06-14T08:09:50;100110.97;;;32.81;22.30
49627;BME280;35527;54.616;39.786;2023-06-14T08:12:55;100118.06;;;32.95;23.41
49627;BME280;35527;54.616;39.786;2023-06-14T08:15:58;100110.06;;;32.67;23.31
49627;BME280;35527;54.616;39.786;2023-06-14T08:19:00;100105.34;;;31.91;23.73
49627;BME280;35527;54.616;39.786;2023-06-14T08:22:06;100108.22;;;32.67;23.34
49627;BME280;35527;54.616;39.786;2023-06-14T08:25:09;100099.59;;;32.72;22.96
49627;BME280;35527;54.616;39.786;2023-06-14T08:28:12;100103.19;;;32.51;23.37
49627;BME280;35527;54.616;39.786;2023-06-14T08:31:16;100104.25;;;32.91;23.10
49627;BME280;35527;54.616;39.786;2023-06-14T08:34:18;100100.84;;;32.76;22.84
49627;BME280;35527;54.616;39.786;2023-06-14T08:37:22;100100.75;;;32.97;22.81
49627;BME280;35527;54.616;39.786;2023-06-14T08:40:30;100107.84;;;33.05;22.67
49627;BME280;35527;54.616;39.786;2023-06-14T08:43:33;100093.50;;;33.33;22.24
49627;BME280;35527;54.616;39.786;2023-06-14T08:46:36;100099.03;;;34.13;22.19
49627;BME280;35527;54.616;39.786;2023-06-14T08:49:41;100090.53;;;33.96;22.76
49627;BME280;35527;54.616;39.786;2023-06-14T08:52:51;100089.09;;;33.86;22.12
49627;BME280;35527;54.616;39.786;2023-06-14T08:55:55;100095.66;;;33.57;22.03
49627;BME280;35527;54.616;39.786;2023-06-14T08:58:59;100088.47;;;33.16;23.07
49627;BME280;35527;54.616;39.786;2023-06-14T09:02:06;100079.22;;;32.78;23.54
49627;BME280;35527;54.616;39.786;2023-06-14T09:05:17;100077.84;;;32.95;22.68
49627;BME280;35527;54.616;39.786;2023-06-14T09:08:22;100078.44;;;32.56;23.47
49627;BME280;35527;54.616;39.786;2023-06-14T09:11:27;100075.22;;;32.11;24.02
49627;BME280;35527;54.616;39.786;2023-06-14T09:14:33;100068.34;;;31.58;24.21
49627;BME280;35527;54.616;39.786;2023-06-14T09:17:39;100067.78;;;30.67;25.70
49627;BME280;35527;54.616;39.786;2023-06-14T09:20:42;100066.88;;;31.05;25.58
49627;BME280;35527;54.616;39.786;2023-06-14T09:23:47;100066.25;;;31.54;25.04
49627;BME280;35527;54.616;39.786;2023-06-14T09:26:52;100067.88;;;31.76;24.96
49627;BME280;35527;54.616;39.786;2023-06-14T09:29:55;100069.16;;;31.37;25.15
49627;BME280;35527;54.616;39.786;2023-06-14T09:32:57;100067.97;;;31.10;25.93
49627;BME280;35527;54.616;39.786;2023-06-14T09:36:03;100061.53;;;30.45;26.89
49627;BME280;35527;54.616;39.786;2023-06-14T09:39:06;100050.38;;;30.04;27.70
49627;BME280;35527;54.616;39.786;2023-06-14T09:42:16;100053.31;;;29.94;27.96
49627;BME280;35527;54.616;39.786;2023-06-14T09:45:20;100052.97;;;30.65;26.77
49627;BME280;35527;54.616;39.786;2023-06-14T09:48:27;100048.38;;;30.73;26.64
49627;BME280;35527;54.616;39.786;2023-06-14T09:51:33;100046.28;;;29.93;27.29
49627;BME280;35527;54.616;39.786;2023-06-14T09:54:40;100045.13;;;29.73;28.05
49627;BME280;35527;54.616;39.786;2023-06-14T09:57:45;100040.88;;;30.01;27.15
49627;BME280;35527;54.616;39.786;2023-06-14T10:00:50;100038.50;;;30.29;27.05
49627;BME280;35527;54.616;39.786;2023-06-14T10:04:02;100017.19;;;29.37;28.20
49627;BME280;35527;54.616;39.786;2023-06-14T10:07:08;100028.66;;;29.69;28.85
49627;BME280;35527;54.616;39.786;2023-06-14T10:10:14;100033.97;;;28.75;29.31
49627;BME280;35527;54.616;39.786;2023-06-14T10:13:17;100027.66;;;28.77;29.71
49627;BME280;35527;54.616;39.786;2023-06-14T10:16:27;100016.56;;;28.96;28.87
49627;BME280;35527;54.616;39.786;2023-06-14T10:19:33;100017.13;;;28.27;30.07
49627;BME280;35527;54.616;39.786;2023-06-14T10:22:40;100007.09;;;28.46;29.77
49627;BME280;35527;54.616;39.786;2023-06-14T10:25:45;100005.56;;;28.99;29.71
49627;BME280;35527;54.616;39.786;2023-06-14T10:29:01;100008.41;;;29.29;28.90
49627;BME280;35527;54.616;39.786;2023-06-14T10:32:10;100004.66;;;29.15;29.92
49627;BME280;35527;54.616;39.786;2023-06-14T10:35:15;100011.25;;;28.32;30.07
49627;BME280;35527;54.616;39.786;2023-06-14T10:38:18;100001.78;;;28.29;31.41
49627;BME280;35527;54.616;39.786;2023-06-14T10:41:35;100004.13;;;27.75;31.62
49627;BME280;35527;54.616;39.786;2023-06-14T10:47:42;99993.34;;;27.77;30.94
49627;BME280;35527;54.616;39.786;2023-06-14T10:50:48;99992.50;;;28.09;30.79
49627;BME280;35527;54.616;39.786;2023-06-14T10:53:55;99995.00;;;28.74;29.92
49627;BME280;35527;54.616;39.786;2023-06-14T10:57:01;99992.97;;;28.85;29.24
49627;BME280;35527;54.616;39.786;2023-06-14T11:00:07;99996.56;;;28.61;30.07
49627;BME280;35527;54.616;39.786;2023-06-14T11:06:26;99982.66;;;28.42;30.07
49627;BME280;35527;54.616;39.786;2023-06-14T11:12:45;99976.97;;;28.37;29.89
49627;BME280;35527;54.616;39.786;2023-06-14T11:15:49;99987.97;;;28.50;30.20
49627;BME280;35527;54.616;39.786;2023-06-14T11:18:55;99986.50;;;28.79;29.19
49627;BME280;35527;54.616;39.786;2023-06-14T11:21:57;99990.09;;;28.94;29.15
49627;BME280;35527;54.616;39.786;2023-06-14T11:25:01;99989.72;;;28.66;30.05
49627;BME280;35527;54.616;39.786;2023-06-14T11:28:05;99990.50;;;28.19;30.68
49627;BME280;35527;54.616;39.786;2023-06-14T11:31:08;99976.72;;;27.42;31.10
49627;BME280;35527;54.616;39.786;2023-06-14T11:34:13;99965.09;;;27.59;31.80
49627;BME280;35527;54.616;39.786;2023-06-14T11:37:15;99956.63;;;27.56;30.88
49627;BME280;35527;54.616;39.786;2023-06-14T11:40:19;99967.94;;;27.82;30.60
49627;BME280;35527;54.616;39.786;2023-06-14T11:43:24;99969.25;;;27.95;30.09
49627;BME280;35527;54.616;39.786;2023-06-14T11:46:26;99962.13;;;27.79;30.84
49627;BME280;35527;54.616;39.786;2023-06-14T11:49:34;99968.25;;;27.55;31.33
49627;BME280;35527;54.616;39.786;2023-06-14T11:52:37;99967.13;;;27.82;30.88
49627;BME280;35527;54.616;39.786;2023-06-14T11:55:41;99958.63;;;27.87;30.66
49627;BME280;35527;54.616;39.786;2023-06-14T11:58:46;99955.47;;;27.83;30.83
49627;BME280;35527;54.616;39.786;2023-06-14T12:01:49;99952.63;;;27.60;30.91
49627;BME280;35527;54.616;39.786;2023-06-14T12:04:54;99943.34;;;27.56;31.54
49627;BME280;35527;54.616;39.786;2023-06-14T12:08:02;99949.81;;;27.45;32.12
49627;BME280;35527;54.616;39.786;2023-06-14T12:11:06;99944.81;;;27.26;31.89
49627;BME280;35527;54.616;39.786;2023-06-14T12:14:11;99943.81;;;27.51;31.34
49627;BME280;35527;54.616;39.786;2023-06-14T12:17:13;99932.19;;;27.60;31.41
49627;BME280;35527;54.616;39.786;2023-06-14T12:20:19;99944.16;;;27.65;30.61
49627;BME280;35527;54.616;39.786;2023-06-14T12:23:25;99939.31;;;27.35;31.14
49627;BME280;35527;54.616;39.786;2023-06-14T12:26:27;99940.16;;;27.52;30.84
49627;BME280;35527;54.616;39.786;2023-06-14T12:29:30;99933.66;;;27.38;31.39
49627;BME280;35527;54.616;39.786;2023-06-14T12:32:33;99935.19;;;27.25;31.68
49627;BME280;35527;54.616;39.786;2023-06-14T12:35:36;99926.47;;;27.14;32.32
49627;BME280;35527;54.616;39.786;2023-06-14T12:38:39;99921.81;;;27.08;32.32
49627;BME280;35527;54.616;39.786;2023-06-14T12:41:45;99921.38;;;27.29;31.90
49627;BME280;35527;54.616;39.786;2023-06-14T12:44:48;99930.97;;;27.14;31.82
49627;BME280;35527;54.616;39.786;2023-06-14T12:47:51;99921.16;;;26.90;31.31
49627;BME280;35527;54.616;39.786;2023-06-14T12:50:54;99921.78;;;26.76;32.09
49627;BME280;35527;54.616;39.786;2023-06-14T12:53:58;99906.63;;;26.60;32.50
49627;BME280;35527;54.616;39.786;2023-06-14T12:57:02;99918.38;;;26.57;32.33
49627;BME280;35527;54.616;39.786;2023-06-14T13:00:05;99920.25;;;26.65;32.40
49627;BME280;35527;54.616;39.786;2023-06-14T13:03:11;99919.97;;;26.42;32.79
49627;BME280;35527;54.616;39.786;2023-06-14T13:06:17;99905.34;;;26.03;33.16
49627;BME280;35527;54.616;39.786;2023-06-14T13:09:20;99904.81;;;26.00;33.13
49627;BME280;35527;54.616;39.786;2023-06-14T13:12:23;99902.34;;;26.06;32.92
49627;BME280;35527;54.616;39.786;2023-06-14T13:15:27;99903.72;;;26.11;32.88
49627;BME280;35527;54.616;39.786;2023-06-14T13:18:35;99904.69;;;26.01;33.18
49627;BME280;35527;54.616;39.786;2023-06-14T13:21:39;99900.28;;;25.92;33.85
49627;BME280;35527;54.616;39.786;2023-06-14T13:24:44;99903.03;;;26.09;33.91
49627;BME280;35527;54.616;39.786;2023-06-14T13:27:46;99899.59;;;26.16;33.24
49627;BME280;35527;54.616;39.786;2023-06-14T13:30:50;99892.75;;;26.05;32.56
49627;BME280;35527;54.616;39.786;2023-06-14T13:33:53;99907.53;;;26.08;33.16
49627;BME280;35527;54.616;39.786;2023-06-14T13:36:56;99911.28;;;25.79;32.94
49627;BME280;35527;54.616;39.786;2023-06-14T13:40:03;99893.56;;;25.54;33.24
49627;BME280;35527;54.616;39.786;2023-06-14T13:43:06;99896.19;;;25.54;33.39
49627;BME280;35527;54.616;39.786;2023-06-14T13:46:09;99897.09;;;25.62;33.28
49627;BME280;35527;54.616;39.786;2023-06-14T13:49:11;99893.09;;;25.58;33.77
49627;BME280;35527;54.616;39.786;2023-06-14T13:52:15;99881.81;;;25.56;33.61
49627;BME280;35527;54.616;39.786;2023-06-14T13:55:18;99889.97;;;25.63;33.79
49627;BME280;35527;54.616;39.786;2023-06-14T13:58:21;99887.06;;;25.74;33.11
49627;BME280;35527;54.616;39.786;2023-06-14T14:01:26;99894.09;;;25.83;32.41
49627;BME280;35527;54.616;39.786;2023-06-14T14:04:30;99882.19;;;25.61;32.98
49627;BME280;35527;54.616;39.786;2023-06-14T14:07:33;99876.41;;;25.66;33.31
49627;BME280;35527;54.616;39.786;2023-06-14T14:10:36;99877.47;;;25.73;33.36
49627;BME280;35527;54.616;39.786;2023-06-14T14:13:39;99879.75;;;25.68;33.74
49627;BME280;35527;54.616;39.786;2023-06-14T14:16:42;99885.91;;;25.77;33.11
49627;BME280;35527;54.616;39.786;2023-06-14T14:19:46;99881.63;;;25.58;33.77
49627;BME280;35527;54.616;39.786;2023-06-14T14:22:50;99882.31;;;25.60;33.64
49627;BME280;35527;54.616;39.786;2023-06-14T14:25:53;99886.28;;;25.56;33.94
49627;BME280;35527;54.616;39.786;2023-06-14T14:28:56;99880.50;;;25.60;33.61
49627;BME280;35527;54.616;39.786;2023-06-14T14:32:00;99881.06;;;25.72;33.61
49627;BME280;35527;54.616;39.786;2023-06-14T14:35:03;99881.06;;;25.72;33.37
49627;BME280;35527;54.616;39.786;2023-06-14T14:38:08;99890.13;;;25.61;33.20
49627;BME280;35527;54.616;39.786;2023-06-14T14:41:13;99893.09;;;25.40;33.50
49627;BME280;35527;54.616;39.786;2023-06-14T14:44:17;99895.84;;;25.31;34.33
49627;BME280;35527;54.616;39.786;2023-06-14T14:47:23;99889.50;;;25.42;33.96
49627;BME280;35527;54.616;39.786;2023-06-14T14:50:27;99888.50;;;25.43;33.87
49627;BME280;35527;54.616;39.786;2023-06-14T14:53:29;99892.06;;;25.33;33.82
49627;BME280;35527;54.616;39.786;2023-06-14T14:56:32;99885.13;;;25.14;34.14
49627;BME280;35527;54.616;39.786;2023-06-14T14:59:35;99889.09;;;25.01;34.43
49627;BME280;35527;54.616;39.786;2023-06-14T15:02:37;99874.63;;;24.77;35.62
49627;BME280;35527;54.616;39.786;2023-06-14T15:05:42;99887.47;;;24.72;34.95
49627;BME280;35527;54.616;39.786;2023-06-14T15:08:46;99878.72;;;24.71;35.46
49627;BME280;35527;54.616;39.786;2023-06-14T15:11:49;99883.31;;;24.69;35.66
49627;BME280;35527;54.616;39.786;2023-06-14T15:14:55;99879.81;;;24.51;35.46
49627;BME280;35527;54.616;39.786;2023-06-14T15:17:59;99882.34;;;24.43;36.45
49627;BME280;35527;54.616;39.786;2023-06-14T15:21:02;99880.28;;;24.37;36.36
49627;BME280;35527;54.616;39.786;2023-06-14T15:24:05;99891.16;;;24.34;36.47
49627;BME280;35527;54.616;39.786;2023-06-14T15:27:08;99895.09;;;24.30;36.24
49627;BME280;35527;54.616;39.786;2023-06-14T15:30:12;99891.69;;;24.37;35.84
49627;BME280;35527;54.616;39.786;2023-06-14T15:33:17;99884.34;;;24.31;36.15
49627;BME280;35527;54.616;39.786;2023-06-14T15:36:22;99892.03;;;24.24;36.00
49627;BME280;35527;54.616;39.786;2023-06-14T15:39:25;99893.84;;;24.24;36.28
49627;BME280;35527;54.616;39.786;2023-06-14T15:42:29;99888.41;;;24.25;36.60
49627;BME280;35527;54.616;39.786;2023-06-14T15:45:33;99899.69;;;24.27;36.52
49627;BME280;35527;54.616;39.786;2023-06-14T15:48:36;99894.38;;;24.27;36.46
49627;BME280;35527;54.616;39.786;2023-06-14T15:51:39;99896.69;;;24.13;37.02
49627;BME280;35527;54.616;39.786;2023-06-14T15:54:42;99900.47;;;24.00;37.53
49627;BME280;35527;54.616;39.786;2023-06-14T15:57:47;99896.75;;;23.93;37.81
49627;BME280;35527;54.616;39.786;2023-06-14T16:00:51;99895.53;;;23.78;37.27
49627;BME280;35527;54.616;39.786;2023-06-14T16:03:54;99886.34;;;23.63;37.62
49627;BME280;35527;54.616;39.786;2023-06-14T16:06:59;99906.41;;;23.55;38.00
49627;BME280;35527;54.616;39.786;2023-06-14T16:10:02;99909.44;;;23.51;38.19